Time,TemperatureF,DewpointF,PressureIn,WindDirection,WindDirectionDegrees,WindSpeedMPH,WindSpeedGustMPH,Humidity,HourlyPrecipIn,Conditions,Clouds,dailyrainin,SoftwareType,DateUTC
2013-03-31 00:00:00,48.5,46.9,29.91,South,179,0.0,0.0,94,0.00,,,0.00,VWS V14.01,2013-03-31 05:00:00,
2013-03-31 00:05:00,48.5,46.9,29.90,South,179,0.0,0.0,94,0.00,,,0.00,VWS V14.01,2013-03-31 05:05:00,
2013-03-31 00:10:00,48.5,46.9,29.90,South,179,0.0,3.0,94,0.00,,,0.00,VWS V14.01,2013-03-31 05:10:00,
2013-03-31 00:15:00,48.5,46.9,29.90,South,179,0.0,3.0,94,0.00,,,0.00,VWS V14.01,2013-03-31 05:15:00,
2013-03-31 00:20:00,48.5,46.9,29.90,South,179,0.0,3.0,94,0.00,,,0.00,VWS V14.01,2013-03-31 05:20:00,
2013-03-31 00:25:00,48.4,46.8,29.90,South,179,0.0,3.0,94,0.00,,,0.00,VWS V14.01,2013-03-31 05:25:00,
2013-03-31 00:30:00,48.4,47.0,29.90,South,179,0.0,0.0,95,0.00,,,0.00,VWS V14.01,2013-03-31 05:30:00,
2013-03-31 00:35:00,48.4,47.0,29.90,South,179,0.0,0.0,95,0.00,,,0.00,VWS V14.01,2013-03-31 05:35:00,
2013-03-31 00:40:00,48.3,46.9,29.90,South,179,0.0,0.0,95,0.00,,,0.00,VWS V14.01,2013-03-31 05:40:00,
2013-03-31 00:45:00,48.3,46.9,29.91,South,179,0.0,0.0,95,0.00,,,0.00,VWS V14.01,2013-03-31 05:45:00,
2013-03-31 00:50:00,48.3,46.9,29.91,South,179,0.0,0.0,95,0.00,,,0.00,VWS V14.01,2013-03-31 05:50:00,
2013-03-31 00:55:00,48.3,46.9,29.90,South,179,0.0,0.0,95,0.00,,,0.00,VWS V14.01,2013-03-31 05:55:00,
2013-03-31 01:00:00,48.3,46.9,29.90,South,180,0.0,0.0,95,0.00,,,0.00,VWS V14.01,2013-03-31 06:00:00,
2013-03-31 01:05:00,48.3,46.9,29.90,South,179,0.0,0.0,95,0.00,,,0.00,VWS V14.01,2013-03-31 06:05:00,
2013-03-31 01:10:00,48.3,46.9,29.90,South,179,0.0,0.0,95,0.00,,,0.00,VWS V14.01,2013-03-31 06:10:00,
2013-03-31 01:15:00,48.3,46.9,29.90,South,179,0.0,0.0,95,0.00,,,0.00,VWS V14.01,2013-03-31 06:15:00,
2013-03-31 01:20:00,48.2,46.8,29.90,South,179,0.0,0.0,95,0.00,,,0.00,VWS V14.01,2013-03-31 06:20:00,
2013-03-31 01:25:00,48.3,46.9,29.90,South,179,0.0,0.0,95,0.00,,,0.00,VWS V14.01,2013-03-31 06:25:00,
2013-03-31 01:30:00,48.3,46.9,29.90,South,179,0.0,0.0,95,0.00,,,0.00,VWS V14.01,2013-03-31 06:30:00,
2013-03-31 01:35:00,48.3,46.9,29.89,South,179,0.0,0.0,95,0.00,,,0.00,VWS V14.01,2013-03-31 06:35:00,
2013-03-31 01:40:00,48.3,46.9,29.89,South,179,0.0,0.0,95,0.00,,,0.00,VWS V14.01,2013-03-31 06:40:00,
2013-03-31 01:45:00,48.3,46.9,29.89,South,179,0.0,0.0,95,0.00,,,0.00,VWS V14.01,2013-03-31 06:45:00,
2013-03-31 01:50:00,48.3,46.9,29.89,South,179,0.0,0.0,95,0.00,,,0.00,VWS V14.01,2013-03-31 06:50:00,
2013-03-31 01:55:00,48.4,47.0,29.88,South,179,0.0,0.0,95,0.00,,,0.00,VWS V14.01,2013-03-31 06:55:00,
2013-03-31 02:00:00,48.4,47.0,29.88,South,179,0.0,0.0,95,0.00,,,0.00,VWS V14.01,2013-03-31 07:00:00,
2013-03-31 02:05:00,48.3,46.9,29.88,South,179,0.0,0.0,95,0.00,,,0.00,VWS V14.01,2013-03-31 07:05:00,
2013-03-31 02:10:00,48.3,46.9,29.88,South,179,0.0,0.0,95,0.00,,,0.00,VWS V14.01,2013-03-31 07:10:00,
2013-03-31 02:15:00,48.3,46.9,29.88,South,179,0.0,0.0,95,0.00,,,0.00,VWS V14.01,2013-03-31 07:15:00,
2013-03-31 02:20:00,48.3,46.9,29.88,South,179,0.0,0.0,95,0.00,,,0.00,VWS V14.01,2013-03-31 07:20:00,
2013-03-31 02:25:00,48.3,46.9,29.88,South,179,1.5,3.0,95,0.00,,,0.00,VWS V14.01,2013-03-31 07:25:00,
2013-03-31 02:30:00,48.3,46.9,29.87,South,179,0.0,0.0,95,0.00,,,0.00,VWS V14.01,2013-03-31 07:30:00,
2013-03-31 02:35:00,48.3,46.9,29.87,South,179,0.0,3.0,95,0.00,,,0.00,VWS V14.01,2013-03-31 07:35:00,
2013-03-31 02:41:00,48.3,46.9,29.87,South,179,0.0,3.0,95,0.00,,,0.00,VWS V14.01,2013-03-31 07:41:00,
2013-03-31 02:46:00,48.3,46.9,29.87,South,179,0.0,3.0,95,0.00,,,0.00,VWS V14.01,2013-03-31 07:46:00,
2013-03-31 02:51:00,48.3,46.9,29.87,South,179,3.0,7.5,95,0.00,,,0.00,VWS V14.01,2013-03-31 07:51:00,
2013-03-31 02:56:00,48.3,46.9,29.87,South,179,0.0,7.5,95,0.00,,,0.00,VWS V14.01,2013-03-31 07:56:00,
2013-03-31 03:01:00,48.3,46.9,29.87,South,179,0.0,0.0,95,0.00,,,0.00,VWS V14.01,2013-03-31 08:01:00,
2013-03-31 03:06:00,48.3,46.9,29.86,South,179,0.0,0.0,95,0.00,,,0.00,VWS V14.01,2013-03-31 08:06:00,
2013-03-31 03:11:00,48.3,46.9,29.87,South,179,0.0,3.0,95,0.00,,,0.00,VWS V14.01,2013-03-31 08:11:00,
2013-03-31 03:16:00,48.3,46.9,29.87,South,179,0.0,3.0,95,0.00,,,0.00,VWS V14.01,2013-03-31 08:16:00,
2013-03-31 03:21:00,48.4,47.0,29.87,South,179,0.0,3.0,95,0.00,,,0.00,VWS V14.01,2013-03-31 08:21:00,
2013-03-31 03:26:00,48.4,47.3,29.87,South,179,0.0,3.0,96,0.00,,,0.00,VWS V14.01,2013-03-31 08:26:00,
2013-03-31 03:31:00,48.4,47.3,29.86,South,179,0.0,0.0,96,0.00,,,0.00,VWS V14.01,2013-03-31 08:31:00,
2013-03-31 03:36:00,48.4,47.3,29.86,South,179,0.0,0.0,96,0.00,,,0.00,VWS V14.01,2013-03-31 08:36:00,
2013-03-31 03:42:00,48.4,47.3,29.86,South,179,0.0,0.0,96,0.00,,,0.00,VWS V14.01,2013-03-31 08:42:00,
2013-03-31 03:47:00,48.4,47.3,29.86,South,179,0.0,0.0,96,0.00,,,0.00,VWS V14.01,2013-03-31 08:47:00,
2013-03-31 03:52:00,48.5,47.4,29.86,South,179,0.0,1.5,96,0.00,,,0.00,VWS V14.01,2013-03-31 08:52:00,
2013-03-31 03:57:00,48.5,47.4,29.86,South,179,0.0,1.5,96,0.00,,,0.00,VWS V14.01,2013-03-31 08:57:00,
2013-03-31 04:02:00,48.6,47.5,29.86,South,179,0.0,6.0,96,0.00,,,0.00,VWS V14.01,2013-03-31 09:02:00,
2013-03-31 04:07:00,48.6,47.5,29.86,South,179,0.0,6.0,96,0.00,,,0.00,VWS V14.01,2013-03-31 09:07:00,
2013-03-31 04:12:00,48.6,47.5,29.86,South,179,0.0,6.0,96,0.00,,,0.00,VWS V14.01,2013-03-31 09:12:00,
2013-03-31 04:17:00,48.6,47.5,29.86,South,179,3.0,6.0,96,0.00,,,0.00,VWS V14.01,2013-03-31 09:17:00,
2013-03-31 04:22:00,48.6,47.5,29.85,South,179,3.0,6.0,96,0.00,,,0.00,VWS V14.01,2013-03-31 09:22:00,
2013-03-31 04:27:00,48.6,47.5,29.85,South,180,0.0,6.0,96,0.00,,,0.00,VWS V14.01,2013-03-31 09:27:00,
2013-03-31 04:32:00,48.7,47.6,29.85,South,179,0.0,7.5,96,0.00,,,0.00,VWS V14.01,2013-03-31 09:32:00,
2013-03-31 04:37:00,48.7,47.6,29.85,WNW,301,3.0,9.0,96,0.00,,,0.00,VWS V14.01,2013-03-31 09:37:00,
2013-03-31 04:42:00,48.7,47.6,29.85,NW,306,0.0,9.0,96,0.00,,,0.00,VWS V14.01,2013-03-31 09:42:00,
2013-03-31 04:47:00,48.7,47.6,29.85,NW,306,0.0,9.0,96,0.00,,,0.00,VWS V14.01,2013-03-31 09:47:00,
2013-03-31 04:52:00,48.7,47.6,29.85,NW,306,0.0,9.0,96,0.00,,,0.00,VWS V14.01,2013-03-31 09:52:00,
2013-03-31 04:57:00,48.7,47.6,29.85,NW,306,0.0,9.0,96,0.00,,,0.00,VWS V14.01,2013-03-31 09:57:00,
2013-03-31 05:02:00,48.7,47.6,29.85,NW,306,0.0,0.0,96,0.00,,,0.00,VWS V14.01,2013-03-31 10:02:00,
2013-03-31 05:07:00,48.7,47.6,29.85,NW,306,0.0,6.0,96,0.00,,,0.00,VWS V14.01,2013-03-31 10:07:00,
2013-03-31 05:12:00,48.6,47.5,29.85,NW,306,0.0,6.0,96,0.00,,,0.00,VWS V14.01,2013-03-31 10:12:00,
2013-03-31 05:17:00,48.7,47.6,29.85,NW,306,0.0,6.0,96,0.00,,,0.00,VWS V14.01,2013-03-31 10:17:00,
2013-03-31 05:22:00,48.6,47.5,29.85,NW,306,0.0,6.0,96,0.00,,,0.00,VWS V14.01,2013-03-31 10:22:00,
2013-03-31 05:27:00,48.6,47.5,29.86,NW,306,0.0,6.0,96,0.00,,,0.00,VWS V14.01,2013-03-31 10:27:00,
2013-03-31 05:32:00,48.5,47.4,29.85,NW,306,0.0,0.0,96,0.00,,,0.00,VWS V14.01,2013-03-31 10:32:00,
2013-03-31 05:37:00,48.5,47.4,29.85,NW,306,0.0,1.5,96,0.00,,,0.00,VWS V14.01,2013-03-31 10:37:00,
2013-03-31 05:42:00,48.3,47.2,29.85,NW,306,0.0,6.0,96,0.00,,,0.00,VWS V14.01,2013-03-31 10:42:00,
2013-03-31 05:48:00,48.2,46.8,29.86,NW,306,0.0,6.0,95,0.00,,,0.00,VWS V14.01,2013-03-31 10:48:00,
2013-03-31 05:53:00,48.1,47.0,29.86,NW,306,0.0,6.0,96,0.00,,,0.00,VWS V14.01,2013-03-31 10:53:00,
2013-03-31 05:58:00,48.1,47.0,29.86,NW,306,0.0,6.0,96,0.00,,,0.00,VWS V14.01,2013-03-31 10:58:00,
2013-03-31 06:03:00,48.1,47.0,29.85,NW,306,0.0,0.0,96,0.00,,,0.00,VWS V14.01,2013-03-31 11:03:00,
2013-03-31 06:08:00,48.1,47.0,29.86,NW,306,0.0,0.0,96,0.00,,,0.00,VWS V14.01,2013-03-31 11:08:00,
2013-03-31 06:13:00,48.1,47.0,29.86,NW,306,0.0,0.0,96,0.00,,,0.00,VWS V14.01,2013-03-31 11:13:00,
2013-03-31 06:18:00,48.1,47.0,29.86,NW,306,0.0,0.0,96,0.00,,,0.00,VWS V14.01,2013-03-31 11:18:00,
2013-03-31 06:23:00,48.2,47.1,29.87,NW,306,0.0,1.5,96,0.00,,,0.00,VWS V14.01,2013-03-31 11:23:00,
2013-03-31 06:28:00,48.2,47.1,29.86,NW,306,0.0,1.5,96,0.00,,,0.00,VWS V14.01,2013-03-31 11:28:00,
2013-03-31 06:33:00,48.2,47.1,29.86,NW,306,0.0,3.0,96,0.00,,,0.00,VWS V14.01,2013-03-31 11:33:00,
2013-03-31 06:38:00,48.2,47.1,29.87,NW,306,0.0,3.0,96,0.00,,,0.00,VWS V14.01,2013-03-31 11:38:00,
2013-03-31 06:43:00,48.3,47.2,29.87,NW,306,0.0,3.0,96,0.00,,,0.00,VWS V14.01,2013-03-31 11:43:00,
2013-03-31 06:48:00,48.3,47.2,29.87,NW,306,0.0,3.0,96,0.00,,,0.00,VWS V14.01,2013-03-31 11:48:00,
2013-03-31 06:53:00,48.3,47.2,29.87,NW,306,0.0,3.0,96,0.00,,,0.00,VWS V14.01,2013-03-31 11:53:00,
2013-03-31 06:58:00,48.3,47.2,29.86,NW,306,0.0,3.0,96,0.00,,,0.00,VWS V14.01,2013-03-31 11:58:00,
2013-03-31 07:03:00,48.3,47.2,29.87,NW,306,3.0,6.0,96,0.00,,,0.00,VWS V14.01,2013-03-31 12:03:00,
2013-03-31 07:08:00,48.4,47.3,29.87,NW,306,0.0,6.0,96,0.00,,,0.00,VWS V14.01,2013-03-31 12:08:00,
2013-03-31 07:13:00,48.4,47.3,29.88,NW,306,0.0,6.0,96,0.00,,,0.00,VWS V14.01,2013-03-31 12:13:00,
2013-03-31 07:18:00,48.4,47.3,29.88,NW,306,0.0,6.0,96,0.00,,,0.00,VWS V14.01,2013-03-31 12:18:00,
2013-03-31 07:23:00,48.4,47.3,29.88,NW,306,6.0,6.0,96,0.00,,,0.00,VWS V14.01,2013-03-31 12:23:00,
2013-03-31 07:28:00,48.4,47.3,29.88,NW,306,0.0,6.0,96,0.00,,,0.00,VWS V14.01,2013-03-31 12:28:00,
2013-03-31 07:33:00,48.4,47.3,29.89,NW,306,0.0,6.0,96,0.00,,,0.00,VWS V14.01,2013-03-31 12:33:00,
2013-03-31 07:38:00,48.5,47.4,29.89,NW,306,0.0,6.0,96,0.00,,,0.00,VWS V14.01,2013-03-31 12:38:00,
2013-03-31 07:43:00,48.5,47.4,29.90,NW,306,0.0,6.0,96,0.00,,,0.00,VWS V14.01,2013-03-31 12:43:00,
2013-03-31 07:48:00,48.5,47.4,29.90,NW,306,0.0,6.0,96,0.00,,,0.00,VWS V14.01,2013-03-31 12:48:00,
2013-03-31 07:53:00,48.5,47.4,29.90,NW,306,0.0,6.0,96,0.00,,,0.00,VWS V14.01,2013-03-31 12:53:00,
2013-03-31 07:58:00,48.6,47.5,29.90,NW,306,0.0,6.0,96,0.00,,,0.00,VWS V14.01,2013-03-31 12:58:00,
2013-03-31 08:03:00,48.6,47.5,29.90,NW,306,0.0,3.0,96,0.00,,,0.00,VWS V14.01,2013-03-31 13:03:00,
2013-03-31 08:08:00,48.7,47.6,29.90,NW,306,0.0,3.0,96,0.00,,,0.00,VWS V14.01,2013-03-31 13:08:00,
2013-03-31 08:13:00,48.7,47.6,29.90,NW,306,0.0,3.0,96,0.00,,,0.00,VWS V14.01,2013-03-31 13:13:00,
2013-03-31 08:18:00,48.8,47.7,29.90,NW,306,0.0,3.0,96,0.00,,,0.00,VWS V14.01,2013-03-31 13:18:00,
2013-03-31 08:23:00,48.8,47.7,29.90,NW,306,0.0,3.0,96,0.00,,,0.00,VWS V14.01,2013-03-31 13:23:00,
2013-03-31 08:28:00,48.9,47.8,29.90,NW,306,0.0,3.0,96,0.00,,,0.00,VWS V14.01,2013-03-31 13:28:00,
2013-03-31 08:33:00,49.0,47.9,29.90,NW,306,1.5,3.0,96,0.00,,,0.00,VWS V14.01,2013-03-31 13:33:00,
2013-03-31 08:38:00,49.0,47.9,29.91,NW,306,0.0,6.0,96,0.00,,,0.00,VWS V14.01,2013-03-31 13:38:00,
2013-03-31 08:43:00,49.2,48.1,29.91,NW,306,1.5,7.5,96,0.00,,,0.00,VWS V14.01,2013-03-31 13:43:00,
2013-03-31 08:48:00,49.3,48.2,29.91,NW,306,0.0,7.5,96,0.00,,,0.00,VWS V14.01,2013-03-31 13:48:00,
2013-03-31 08:53:00,49.3,48.2,29.91,NW,306,0.0,7.5,96,0.00,,,0.00,VWS V14.01,2013-03-31 13:53:00,
2013-03-31 08:58:00,49.4,48.3,29.91,NW,306,0.0,7.5,96,0.00,,,0.00,VWS V14.01,2013-03-31 13:58:00,
2013-03-31 09:03:00,49.4,48.3,29.91,NW,306,0.0,3.0,96,0.00,,,0.00,VWS V14.01,2013-03-31 14:03:00,
2013-03-31 09:08:00,49.5,48.4,29.91,NW,306,0.0,3.0,96,0.00,,,0.00,VWS V14.01,2013-03-31 14:08:00,
2013-03-31 09:13:00,49.6,48.5,29.92,NW,306,1.5,7.5,96,0.00,,,0.00,VWS V14.01,2013-03-31 14:13:00,
2013-03-31 09:18:00,49.6,48.5,29.92,NW,313,7.5,7.5,96,0.00,,,0.00,VWS V14.01,2013-03-31 14:18:00,
2013-03-31 09:23:00,49.6,48.2,29.92,NW,314,3.0,7.5,95,0.00,,,0.00,VWS V14.01,2013-03-31 14:23:00,
2013-03-31 09:28:00,49.6,48.2,29.91,NW,314,0.0,7.5,95,0.00,,,0.00,VWS V14.01,2013-03-31 14:28:00,
2013-03-31 09:33:00,49.7,48.3,29.91,NW,314,0.0,6.0,95,0.00,,,0.00,VWS V14.01,2013-03-31 14:33:00,
2013-03-31 09:38:00,49.9,48.5,29.91,NW,314,0.0,6.0,95,0.00,,,0.00,VWS V14.01,2013-03-31 14:38:00,
2013-03-31 09:43:00,50.1,48.7,29.92,NW,314,0.0,6.0,95,0.00,,,0.00,VWS V14.01,2013-03-31 14:43:00,
2013-03-31 09:48:00,50.2,48.8,29.92,NW,314,0.0,6.0,95,0.00,,,0.00,VWS V14.01,2013-03-31 14:48:00,
2013-03-31 09:53:00,50.2,48.5,29.91,NW,314,0.0,6.0,94,0.00,,,0.00,VWS V14.01,2013-03-31 14:53:00,
2013-03-31 09:58:00,50.2,48.5,29.91,NW,314,0.0,6.0,94,0.00,,,0.00,VWS V14.01,2013-03-31 14:58:00,
2013-03-31 10:03:00,50.4,48.7,29.92,NW,314,0.0,1.5,94,0.00,,,0.00,VWS V14.01,2013-03-31 15:03:00,
2013-03-31 10:08:00,50.4,48.7,29.90,South,172,9.0,10.5,94,0.00,,,0.00,VWS V14.01,2013-03-31 15:08:00,
2013-03-31 10:14:00,50.3,48.4,29.91,SSE,163,6.0,10.5,93,0.00,,,0.00,VWS V14.01,2013-03-31 15:14:00,
2013-03-31 10:18:00,50.4,48.5,29.91,South,178,6.0,10.5,93,0.00,,,0.00,VWS V14.01,2013-03-31 15:18:00,
2013-03-31 10:23:00,50.5,48.6,29.92,South,175,0.0,10.5,93,0.00,,,0.00,VWS V14.01,2013-03-31 15:23:00,
2013-03-31 10:29:00,50.7,48.8,29.91,South,175,6.0,10.5,93,0.00,,,0.00,VWS V14.01,2013-03-31 15:29:00,
2013-03-31 10:34:00,51.0,49.0,29.91,South,184,4.5,9.0,93,0.00,,,0.00,VWS V14.01,2013-03-31 15:34:00,
2013-03-31 10:39:00,51.1,49.2,29.91,South,184,0.0,9.0,93,0.00,,,0.00,VWS V14.01,2013-03-31 15:39:00,
2013-03-31 10:44:00,51.2,49.2,29.91,South,184,0.0,9.0,93,0.00,,,0.00,VWS V14.01,2013-03-31 15:44:00,
2013-03-31 10:49:00,51.3,49.1,29.91,South,184,0.0,9.0,92,0.00,,,0.00,VWS V14.01,2013-03-31 15:49:00,
2013-03-31 10:54:00,51.4,49.2,29.91,South,184,0.0,9.0,92,0.00,,,0.00,VWS V14.01,2013-03-31 15:54:00,
2013-03-31 10:59:00,51.7,49.5,29.91,South,184,0.0,9.0,92,0.00,,,0.00,VWS V14.01,2013-03-31 15:59:00,
2013-03-31 11:04:00,51.9,49.4,29.91,South,184,0.0,3.0,91,0.00,,BKN100,0.00,VWS V14.01,2013-03-31 16:04:00,
2013-03-31 11:09:00,52.1,49.6,29.91,South,184,0.0,4.5,91,0.00,,BKN100,0.00,VWS V14.01,2013-03-31 16:09:00,
2013-03-31 11:14:00,52.4,49.8,29.91,South,184,0.0,4.5,91,0.00,,BKN100,0.00,VWS V14.01,2013-03-31 16:14:00,
2013-03-31 11:19:00,52.7,50.2,29.91,South,184,0.0,4.5,91,0.00,,BKN100,0.00,VWS V14.01,2013-03-31 16:19:00,
2013-03-31 11:24:00,53.1,50.0,29.90,South,184,0.0,4.5,89,0.00,,BKN100,0.00,VWS V14.01,2013-03-31 16:24:00,
2013-03-31 11:29:00,53.4,50.2,29.90,South,184,0.0,0.0,89,0.00,,BKN100,0.00,VWS V14.01,2013-03-31 16:29:00,
2013-03-31 11:34:00,53.8,50.6,29.90,South,184,0.0,3.0,89,0.00,,BKN100,0.00,VWS V14.01,2013-03-31 16:34:00,
2013-03-31 11:39:00,54.5,51.0,29.89,SSW,196,1.5,6.0,88,0.00,,BKN100,0.00,VWS V14.01,2013-03-31 16:39:00,
2013-03-31 11:44:00,54.7,50.9,29.89,SSW,196,0.0,6.0,87,0.00,,BKN100,0.00,VWS V14.01,2013-03-31 16:44:00,
2013-03-31 11:49:00,55.4,51.9,29.89,North,355,0.0,7.5,88,0.00,,BKN100,0.00,VWS V14.01,2013-03-31 16:49:00,
2013-03-31 11:54:00,55.7,51.3,29.88,North,360,0.0,7.5,85,0.00,,BKN100,0.00,VWS V14.01,2013-03-31 16:54:00,
2013-03-31 11:59:00,56.2,51.8,29.88,SW,229,0.0,1.5,85,0.00,,BKN012,0.00,VWS V14.01,2013-03-31 16:59:00,
2013-03-31 12:04:00,56.3,51.2,29.88,SW,230,0.0,1.5,83,0.00,,BKN012,0.00,VWS V14.01,2013-03-31 17:04:00,
2013-03-31 12:10:00,56.4,51.3,29.88,SW,230,1.5,4.5,83,0.00,,BKN012,0.00,VWS V14.01,2013-03-31 17:10:00,
2013-03-31 12:15:00,56.3,50.9,29.88,SW,230,3.0,4.5,82,0.00,,BKN012,0.00,VWS V14.01,2013-03-31 17:15:00,
2013-03-31 12:20:00,57.0,51.2,29.88,West,261,0.0,4.5,81,0.00,,BKN012,0.00,VWS V14.01,2013-03-31 17:20:00,
2013-03-31 12:25:00,57.4,51.0,29.87,West,264,0.0,4.5,79,0.00,,BKN012,0.00,VWS V14.01,2013-03-31 17:25:00,
2013-03-31 12:30:00,57.9,51.8,29.86,West,264,0.0,0.0,80,0.00,,BKN012,0.00,VWS V14.01,2013-03-31 17:30:00,
2013-03-31 12:35:00,58.3,52.2,29.87,West,264,0.0,3.0,80,0.00,,BKN012,0.00,VWS V14.01,2013-03-31 17:35:00,
2013-03-31 12:40:00,58.6,52.1,29.87,West,264,3.0,3.0,79,0.00,,BKN012,0.00,VWS V14.01,2013-03-31 17:40:00,
2013-03-31 12:45:00,59.1,51.5,29.87,South,186,4.5,7.5,76,0.00,,BKN012,0.00,VWS V14.01,2013-03-31 17:45:00,
2013-03-31 12:50:00,59.5,51.9,29.87,South,187,0.0,7.5,76,0.00,,BKN012,0.00,VWS V14.01,2013-03-31 17:50:00,
2013-03-31 12:55:00,60.0,52.1,29.88,South,187,0.0,7.5,75,0.00,,BKN012,0.00,VWS V14.01,2013-03-31 17:55:00,
2013-03-31 13:00:00,60.3,52.0,29.88,South,189,0.0,1.5,74,0.00,,BKN012,0.00,VWS V14.01,2013-03-31 18:00:00,
2013-03-31 13:05:00,60.4,51.7,29.88,SSW,192,0.0,3.0,73,0.00,,BKN012,0.00,VWS V14.01,2013-03-31 18:05:00,
2013-03-31 13:10:00,60.4,51.7,29.88,WNW,288,0.0,7.5,73,0.00,,BKN018,0.00,VWS V14.01,2013-03-31 18:10:00,
2013-03-31 13:15:00,60.4,51.3,29.88,WSW,248,1.5,9.0,72,0.00,,BKN018,0.00,VWS V14.01,2013-03-31 18:15:00,
2013-03-31 13:20:00,60.2,51.2,29.88,SW,219,3.0,9.0,72,0.00,,BKN018,0.00,VWS V14.01,2013-03-31 18:20:00,
2013-03-31 13:25:00,60.2,51.2,29.88,NW,313,3.0,9.0,72,0.00,,BKN018,0.00,VWS V14.01,2013-03-31 18:25:00,
2013-03-31 13:30:00,60.4,50.2,29.88,SW,216,7.5,9.0,69,0.00,,BKN018,0.00,VWS V14.01,2013-03-31 18:30:00,
2013-03-31 13:35:00,60.8,51.0,29.87,SSW,200,4.5,10.5,70,0.00,,BKN018,0.00,VWS V14.01,2013-03-31 18:35:00,
2013-03-31 13:40:00,61.4,51.2,29.88,South,169,3.0,10.5,69,0.00,,BKN018,0.00,VWS V14.01,2013-03-31 18:40:00,
2013-03-31 13:45:00,61.7,51.8,29.88,WNW,303,1.5,10.5,70,0.00,,BKN018,0.00,VWS V14.01,2013-03-31 18:45:00,
2013-03-31 13:50:00,61.5,52.4,29.88,SW,215,9.0,10.5,72,0.00,,BKN018,0.00,VWS V14.01,2013-03-31 18:50:00,
2013-03-31 13:55:00,61.8,52.7,29.87,SSW,203,1.5,10.5,72,0.00,,BKN018,0.00,VWS V14.01,2013-03-31 18:55:00,
2013-03-31 14:00:00,61.8,51.1,29.87,WSW,242,0.0,0.0,68,0.00,,BKN018,0.00,VWS V14.01,2013-03-31 19:00:00,
2013-03-31 14:05:00,62.2,52.3,29.87,SSW,200,0.0,9.0,70,0.00,,BKN018,0.00,VWS V14.01,2013-03-31 19:05:00,
2013-03-31 14:10:00,62.8,50.5,29.87,WNW,298,6.0,9.0,64,0.00,,BKN018,0.00,VWS V14.01,2013-03-31 19:10:00,
2013-03-31 14:15:00,63.0,52.3,29.86,WNW,295,7.5,13.5,68,0.00,,BKN018,0.00,VWS V14.01,2013-03-31 19:15:00,
2013-03-31 14:20:00,63.3,50.5,29.86,WNW,298,9.0,13.5,63,0.00,,BKN018,0.00,VWS V14.01,2013-03-31 19:20:00,
2013-03-31 14:25:00,62.7,49.9,29.86,West,280,9.0,13.5,63,0.00,,BKN018,0.00,VWS V14.01,2013-03-31 19:25:00,
2013-03-31 14:30:00,62.9,51.0,29.86,WNW,301,7.5,10.5,65,0.00,,BKN018,0.00,VWS V14.01,2013-03-31 19:30:00,
2013-03-31 14:35:00,62.9,50.1,29.86,WNW,301,0.0,10.5,63,0.00,,BKN018,0.00,VWS V14.01,2013-03-31 19:35:00,
2013-03-31 14:40:00,63.4,51.9,29.86,WNW,292,7.5,10.5,66,0.00,,BKN018,0.00,VWS V14.01,2013-03-31 19:40:00,
2013-03-31 14:45:00,63.9,50.6,29.86,West,279,6.0,12.0,62,0.00,,BKN018,0.00,VWS V14.01,2013-03-31 19:45:00,
2013-03-31 14:50:00,64.0,51.2,29.85,West,279,9.0,12.0,63,0.00,,BKN018,0.00,VWS V14.01,2013-03-31 19:50:00,
2013-03-31 14:55:00,63.9,51.1,29.85,WNW,292,6.0,16.5,63,0.00,,BKN018,0.00,VWS V14.01,2013-03-31 19:55:00,
2013-03-31 15:00:00,64.1,50.8,29.85,WNW,302,7.5,13.5,62,0.00,,BKN018,0.00,VWS V14.01,2013-03-31 20:00:00,
2013-03-31 15:05:00,64.6,50.4,29.85,WNW,296,9.0,16.5,60,0.00,,BKN035,0.00,VWS V14.01,2013-03-31 20:05:00,
2013-03-31 15:10:00,63.8,50.1,29.85,WNW,297,7.5,16.5,61,0.00,,BKN035,0.00,VWS V14.01,2013-03-31 20:10:00,
2013-03-31 15:15:00,63.9,50.2,29.85,WNW,301,3.0,16.5,61,0.00,,BKN035,0.00,VWS V14.01,2013-03-31 20:15:00,
2013-03-31 15:20:00,64.5,49.0,29.84,WNW,285,16.5,16.5,57,0.00,,BKN035,0.00,VWS V14.01,2013-03-31 20:20:00,
2013-03-31 15:25:00,64.9,49.8,29.85,WNW,296,13.5,16.5,58,0.00,,BKN035,0.00,VWS V14.01,2013-03-31 20:25:00,
2013-03-31 15:30:00,64.8,48.3,29.84,WNW,294,16.5,18.0,55,0.00,,BKN035,0.00,VWS V14.01,2013-03-31 20:30:00,
2013-03-31 15:35:00,65.0,48.9,29.84,NW,306,12.0,18.0,56,0.00,,BKN035,0.00,VWS V14.01,2013-03-31 20:35:00,
2013-03-31 15:40:00,64.7,48.7,29.85,WNW,302,9.0,18.0,56,0.00,,BKN035,0.00,VWS V14.01,2013-03-31 20:40:00,
2013-03-31 15:45:00,64.9,49.8,29.84,NW,312,6.0,18.0,58,0.00,,BKN035,0.00,VWS V14.01,2013-03-31 20:45:00,
2013-03-31 15:50:00,64.8,47.8,29.85,WNW,297,7.5,18.0,54,0.00,,BKN035,0.00,VWS V14.01,2013-03-31 20:50:00,
2013-03-31 15:55:00,64.9,48.4,29.84,WNW,292,9.0,18.0,55,0.00,,BKN035,0.00,VWS V14.01,2013-03-31 20:55:00,
2013-03-31 16:00:00,65.1,47.6,29.84,NW,317,6.0,9.0,53,0.00,,BKN046,0.00,VWS V14.01,2013-03-31 21:00:00,
2013-03-31 16:05:00,65.6,46.0,29.84,WNW,303,10.5,18.0,49,0.00,,BKN046,0.00,VWS V14.01,2013-03-31 21:05:00,
2013-03-31 16:10:00,65.8,46.1,29.85,WNW,301,7.5,18.0,49,0.00,,BKN046,0.00,VWS V14.01,2013-03-31 21:10:00,
2013-03-31 16:15:00,65.9,46.2,29.85,WNW,286,10.5,19.5,49,0.00,,BKN046,0.00,VWS V14.01,2013-03-31 21:15:00,
2013-03-31 16:20:00,65.9,44.6,29.84,NW,311,9.0,19.5,46,0.00,,BKN046,0.00,VWS V14.01,2013-03-31 21:20:00,
2013-03-31 16:25:00,65.9,45.7,29.84,WNW,286,13.5,19.5,48,0.00,,BKN046,0.00,VWS V14.01,2013-03-31 21:25:00,
2013-03-31 16:30:00,65.9,47.3,29.84,NNW,333,9.0,9.0,51,0.00,,BKN046,0.00,VWS V14.01,2013-03-31 21:30:00,
2013-03-31 16:35:00,65.9,45.7,29.84,WNW,284,16.5,16.5,48,0.00,,BKN046,0.00,VWS V14.01,2013-03-31 21:35:00,
2013-03-31 16:40:00,65.8,47.2,29.84,NNW,331,10.5,16.5,51,0.00,,BKN046,0.00,VWS V14.01,2013-03-31 21:40:00,
2013-03-31 16:45:00,65.7,47.1,29.84,NW,323,7.5,16.5,51,0.00,,BKN046,0.00,VWS V14.01,2013-03-31 21:45:00,
2013-03-31 16:50:00,65.3,46.7,29.84,NW,318,6.0,16.5,51,0.00,,BKN046,0.00,VWS V14.01,2013-03-31 21:50:00,
2013-03-31 16:55:00,64.9,45.3,29.83,NNW,333,12.0,16.5,49,0.00,,BKN046,0.00,VWS V14.01,2013-03-31 21:55:00,
2013-03-31 17:00:00,64.5,46.0,29.83,NW,308,10.5,16.5,51,0.00,,SCT060,0.00,VWS V14.01,2013-03-31 22:00:00,
2013-03-31 17:06:00,64.8,46.3,29.83,NNW,331,10.5,16.5,51,0.00,,SCT060,0.00,VWS V14.01,2013-03-31 22:06:00,
2013-03-31 17:11:00,65.2,45.6,29.83,NNW,331,9.0,16.5,49,0.00,,SCT060,0.00,VWS V14.01,2013-03-31 22:11:00,
2013-03-31 17:16:00,65.4,46.8,29.83,NNW,329,7.5,16.5,51,0.00,,SCT060,0.00,VWS V14.01,2013-03-31 22:16:00,
2013-03-31 17:21:00,65.5,46.4,29.83,NNW,331,9.0,16.5,50,0.00,,SCT060,0.00,VWS V14.01,2013-03-31 22:21:00,
2013-03-31 17:26:00,65.5,46.4,29.83,NW,308,9.0,16.5,50,0.00,,SCT060,0.00,VWS V14.01,2013-03-31 22:26:00,
2013-03-31 17:31:00,65.4,44.7,29.83,WNW,299,7.5,9.0,47,0.00,,SCT060,0.00,VWS V14.01,2013-03-31 22:31:00,
2013-03-31 17:36:00,65.4,45.8,29.83,NW,309,3.0,10.5,49,0.00,,SCT060,0.00,VWS V14.01,2013-03-31 22:36:00,
2013-03-31 17:41:00,65.4,44.7,29.83,NW,317,6.0,12.0,47,0.00,,SCT060,0.00,VWS V14.01,2013-03-31 22:41:00,
2013-03-31 17:46:00,65.2,45.0,29.83,WNW,302,10.5,12.0,48,0.00,,SCT060,0.00,VWS V14.01,2013-03-31 22:46:00,
2013-03-31 17:51:00,65.0,45.4,29.83,WNW,300,9.0,12.0,49,0.00,,SCT060,0.00,VWS V14.01,2013-03-31 22:51:00,
2013-03-31 17:56:00,64.9,44.8,29.83,NW,317,7.5,12.0,48,0.00,,SCT060,0.00,VWS V14.01,2013-03-31 22:56:00,
2013-03-31 18:02:00,64.7,45.1,29.83,WNW,296,6.0,10.5,49,0.00,,SCT060,0.00,VWS V14.01,2013-03-31 23:02:00,
2013-03-31 18:07:00,64.7,45.7,29.83,WNW,300,1.5,12.0,50,0.00,,SCT060,0.00,VWS V14.01,2013-03-31 23:07:00,
2013-03-31 18:12:00,64.6,46.1,29.83,NW,305,6.0,12.0,51,0.00,,SCT060,0.00,VWS V14.01,2013-03-31 23:12:00,
2013-03-31 18:17:00,64.5,46.0,29.83,NW,307,6.0,12.0,51,0.00,,SCT060,0.00,VWS V14.01,2013-03-31 23:17:00,
2013-03-31 18:22:00,64.4,44.8,29.83,NW,311,6.0,12.0,49,0.00,,SCT060,0.00,VWS V14.01,2013-03-31 23:22:00,
2013-03-31 18:27:00,64.3,44.8,29.83,NW,311,6.0,12.0,49,0.00,,SCT060,0.00,VWS V14.01,2013-03-31 23:27:00,
2013-03-31 18:32:00,63.9,45.4,29.83,WNW,303,1.5,9.0,51,0.00,,SCT060,0.00,VWS V14.01,2013-03-31 23:32:00,
2013-03-31 18:37:00,63.6,45.7,29.83,WNW,303,0.0,9.0,52,0.00,,SCT060,0.00,VWS V14.01,2013-03-31 23:37:00,
2013-03-31 18:42:00,63.4,46.0,29.83,WNW,303,0.0,9.0,53,0.00,,SCT060,0.00,VWS V14.01,2013-03-31 23:42:00,
2013-03-31 18:47:00,63.1,46.2,29.83,WNW,303,0.0,9.0,54,0.00,,SCT060,0.00,VWS V14.01,2013-03-31 23:47:00,
2013-03-31 18:52:00,62.9,46.0,29.83,WNW,303,0.0,9.0,54,0.00,,CLR,0.00,VWS V14.01,2013-03-31 23:52:00,
2013-03-31 18:57:00,62.7,45.3,29.83,WNW,302,0.0,9.0,53,0.00,,CLR,0.00,VWS V14.01,2013-03-31 23:57:00,
2013-03-31 19:02:00,62.5,45.7,29.83,WNW,303,0.0,1.5,54,0.00,,CLR,0.00,VWS V14.01,2013-04-01 00:02:00,
2013-03-31 19:07:00,62.2,45.4,29.83,WNW,303,0.0,1.5,54,0.00,,CLR,0.00,VWS V14.01,2013-04-01 00:07:00,
2013-03-31 19:12:00,62.0,45.2,29.83,WNW,303,0.0,1.5,54,0.00,,CLR,0.00,VWS V14.01,2013-04-01 00:12:00,
2013-03-31 19:17:00,61.8,45.5,29.83,WNW,303,0.0,1.5,55,0.00,,CLR,0.00,VWS V14.01,2013-04-01 00:17:00,
2013-03-31 19:22:00,61.6,44.8,29.83,WNW,302,0.0,1.5,54,0.00,,CLR,0.00,VWS V14.01,2013-04-01 00:22:00,
2013-03-31 19:28:00,61.4,45.1,29.83,WNW,303,0.0,1.5,55,0.00,,CLR,0.00,VWS V14.01,2013-04-01 00:28:00,
2013-03-31 19:33:00,61.2,44.9,29.83,WNW,303,0.0,0.0,55,0.00,,CLR,0.00,VWS V14.01,2013-04-01 00:33:00,
2013-03-31 19:38:00,61.1,44.8,29.83,WNW,303,0.0,0.0,55,0.00,,CLR,0.00,VWS V14.01,2013-04-01 00:38:00,
2013-03-31 19:43:00,60.9,44.6,29.83,WNW,303,0.0,0.0,55,0.00,,CLR,0.00,VWS V14.01,2013-04-01 00:43:00,
2013-03-31 19:48:00,60.7,45.8,29.83,WNW,303,0.0,1.5,58,0.00,,CLR,0.00,VWS V14.01,2013-04-01 00:48:00,
2013-03-31 19:53:00,60.3,45.5,29.83,WNW,303,0.0,1.5,58,0.00,,CLR,0.00,VWS V14.01,2013-04-01 00:53:00,
2013-03-31 19:58:00,59.7,45.4,29.84,WNW,303,0.0,1.5,59,0.00,,CLR,0.00,VWS V14.01,2013-04-01 00:58:00,
2013-03-31 20:03:00,59.5,45.6,29.84,WNW,303,0.0,0.0,60,0.00,,CLR,0.00,VWS V14.01,2013-04-01 01:03:00,
2013-03-31 20:08:00,59.2,45.3,29.84,WNW,303,0.0,0.0,60,0.00,,CLR,0.00,VWS V14.01,2013-04-01 01:08:00,
2013-03-31 20:13:00,59.0,45.2,29.84,WNW,303,0.0,0.0,60,0.00,,CLR,0.00,VWS V14.01,2013-04-01 01:13:00,
2013-03-31 20:18:00,58.7,44.9,29.84,WNW,303,0.0,0.0,60,0.00,,CLR,0.00,VWS V14.01,2013-04-01 01:18:00,
2013-03-31 20:23:00,58.4,44.6,29.84,WNW,303,0.0,0.0,60,0.00,,CLR,0.00,VWS V14.01,2013-04-01 01:23:00,
2013-03-31 20:28:00,58.1,44.7,29.84,WNW,303,0.0,1.5,61,0.00,,CLR,0.00,VWS V14.01,2013-04-01 01:28:00,
2013-03-31 20:33:00,57.7,45.2,29.84,WNW,303,0.0,0.0,63,0.00,,CLR,0.00,VWS V14.01,2013-04-01 01:33:00,
2013-03-31 20:38:00,57.3,44.4,29.84,WNW,303,3.0,6.0,62,0.00,,CLR,0.00,VWS V14.01,2013-04-01 01:38:00,
2013-03-31 20:43:00,56.9,44.5,29.85,WNW,303,0.0,6.0,63,0.00,,CLR,0.00,VWS V14.01,2013-04-01 01:43:00,
2013-03-31 20:48:00,56.8,45.2,29.85,WNW,303,0.0,6.0,65,0.00,,CLR,0.00,VWS V14.01,2013-04-01 01:48:00,
2013-03-31 20:53:00,56.5,45.7,29.85,WNW,303,0.0,6.0,67,0.00,,CLR,0.00,VWS V14.01,2013-04-01 01:53:00,
2013-03-31 20:58:00,56.1,45.3,29.85,WNW,303,0.0,6.0,67,0.00,,CLR,0.00,VWS V14.01,2013-04-01 01:58:00,
2013-03-31 21:03:00,55.7,45.3,29.85,WNW,303,0.0,0.0,68,0.00,,CLR,0.00,VWS V14.01,2013-04-01 02:03:00,
2013-03-31 21:08:00,55.3,44.9,29.85,WNW,303,0.0,0.0,68,0.00,,CLR,0.00,VWS V14.01,2013-04-01 02:08:00,
2013-03-31 21:13:00,55.0,44.7,29.85,SW,218,3.0,6.0,68,0.00,,CLR,0.00,VWS V14.01,2013-04-01 02:13:00,
2013-03-31 21:18:00,54.7,44.4,29.85,SSW,213,1.5,6.0,68,0.00,,CLR,0.00,VWS V14.01,2013-04-01 02:18:00,
2013-03-31 21:23:00,54.5,44.9,29.85,NNW,338,0.0,7.5,70,0.00,,CLR,0.00,VWS V14.01,2013-04-01 02:23:00,
2013-03-31 21:28:00,53.9,44.3,29.85,NNW,338,0.0,7.5,70,0.00,,CLR,0.00,VWS V14.01,2013-04-01 02:28:00,
2013-03-31 21:34:00,53.7,44.2,29.86,NNW,338,0.0,6.0,70,0.00,,CLR,0.00,VWS V14.01,2013-04-01 02:34:00,
2013-03-31 21:38:00,53.4,44.2,29.86,NNW,338,0.0,6.0,71,0.00,,CLR,0.00,VWS V14.01,2013-04-01 02:38:00,
2013-03-31 21:43:00,53.3,44.2,29.86,NNW,338,0.0,6.0,71,0.00,,CLR,0.00,VWS V14.01,2013-04-01 02:43:00,
2013-03-31 21:48:00,53.1,44.3,29.86,NNW,338,0.0,6.0,72,0.00,,CLR,0.00,VWS V14.01,2013-04-01 02:48:00,
2013-03-31 21:54:00,52.9,44.1,29.86,NNW,338,0.0,6.0,72,0.00,,CLR,0.00,VWS V14.01,2013-04-01 02:54:00,
2013-03-31 21:59:00,52.7,44.3,29.86,NNW,338,0.0,6.0,73,0.00,,CLR,0.00,VWS V14.01,2013-04-01 02:59:00,
2013-03-31 22:04:00,52.4,44.0,29.87,NNW,338,0.0,1.5,73,0.00,,CLR,0.00,VWS V14.01,2013-04-01 03:04:00,
2013-03-31 22:09:00,52.1,43.7,29.87,NNW,338,0.0,1.5,73,0.00,,CLR,0.00,VWS V14.01,2013-04-01 03:09:00,
2013-03-31 22:14:00,51.9,43.5,29.88,NNW,338,0.0,1.5,73,0.00,,CLR,0.00,VWS V14.01,2013-04-01 03:14:00,
2013-03-31 22:19:00,51.8,43.1,29.88,NNW,338,0.0,1.5,72,0.00,,CLR,0.00,VWS V14.01,2013-04-01 03:19:00,
2013-03-31 22:24:00,51.7,43.0,29.88,NNW,338,0.0,1.5,72,0.00,,CLR,0.00,VWS V14.01,2013-04-01 03:24:00,
2013-03-31 22:29:00,51.7,41.9,29.87,NNW,338,0.0,0.0,69,0.00,,CLR,0.00,VWS V14.01,2013-04-01 03:29:00,
2013-03-31 22:34:00,52.1,41.9,29.87,NNW,338,0.0,0.0,68,0.00,,CLR,0.00,VWS V14.01,2013-04-01 03:34:00,
2013-03-31 22:39:00,52.6,41.6,29.87,NNW,338,0.0,0.0,66,0.00,,CLR,0.00,VWS V14.01,2013-04-01 03:39:00,
2013-03-31 22:44:00,52.9,42.6,29.87,NNW,338,0.0,0.0,68,0.00,,CLR,0.00,VWS V14.01,2013-04-01 03:44:00,
2013-03-31 22:49:00,53.2,42.2,29.87,NNW,338,3.0,6.0,66,0.00,,CLR,0.00,VWS V14.01,2013-04-01 03:49:00,
2013-03-31 22:54:00,53.9,42.4,29.87,NNW,338,7.5,9.0,65,0.00,,CLR,0.00,VWS V14.01,2013-04-01 03:54:00,
2013-03-31 22:59:00,54.6,42.7,29.87,NNW,333,7.5,9.0,64,0.00,,CLR,0.00,VWS V14.01,2013-04-01 03:59:00,
2013-03-31 23:00:00,54.6,42.7,29.87,NNW,333,7.5,9.0,64,0.00,,CLR,0.00,VWS V14.01,2013-04-01 04:00:00,
2013-03-31 23:05:00,55.2,42.8,29.87,NNW,334,6.0,10.5,63,0.00,,CLR,0.00,VWS V14.01,2013-04-01 04:05:00,
2013-03-31 23:10:00,55.5,42.7,29.87,NNW,330,6.0,10.5,62,0.00,,CLR,0.00,VWS V14.01,2013-04-01 04:10:00,
2013-03-31 23:12:00,55.6,42.8,29.88,NNW,331,6.0,10.5,62,0.00,,CLR,0.00,VWS V14.01,2013-04-01 04:12:00,
2013-03-31 23:17:00,55.7,42.9,29.88,NNW,331,0.0,10.5,62,0.00,,CLR,0.00,VWS V14.01,2013-04-01 04:17:00,
2013-03-31 23:22:00,55.6,43.2,29.88,NNW,331,0.0,10.5,63,0.00,,CLR,0.00,VWS V14.01,2013-04-01 04:22:00,
2013-03-31 23:27:00,55.4,43.0,29.88,NNW,331,0.0,10.5,63,0.00,,CLR,0.00,VWS V14.01,2013-04-01 04:27:00,
2013-03-31 23:32:00,55.3,42.9,29.89,NNW,331,0.0,1.5,63,0.00,,CLR,0.00,VWS V14.01,2013-04-01 04:32:00,
2013-03-31 23:37:00,55.3,42.9,29.89,NW,319,0.0,9.0,63,0.00,,CLR,0.00,VWS V14.01,2013-04-01 04:37:00,
2013-03-31 23:42:00,55.1,43.2,29.90,NW,319,0.0,9.0,64,0.00,,CLR,0.00,VWS V14.01,2013-04-01 04:42:00,
2013-03-31 23:48:00,54.9,43.0,29.90,NW,319,0.0,9.0,64,0.00,,CLR,0.00,VWS V14.01,2013-04-01 04:48:00,
2013-03-31 23:53:00,54.7,42.8,29.90,NW,319,0.0,9.0,64,0.00,,CLR,0.00,VWS V14.01,2013-04-01 04:53:00,
2013-03-31 23:58:00,54.5,42.6,29.90,NW,319,0.0,9.0,64,0.00,,CLR,0.00,VWS V14.01,2013-04-01 04:58:00,